ADDS METAR Data INFO
IDs: Format: Raw Decoded Include TAF

Data at: 0218 UTC 14 Dec 2017

K04V 140212Z AUTO 00000KT 10SM OVC085 01/M14 A3001 RMK AO2
K04V 140150Z AUTO 00000KT 10SM OVC085 01/M14 A3003 RMK AO2
K04V 140133Z AUTO 00000KT 10SM OVC085 01/M14 A3004 RMK AO2
K04V 140111Z AUTO 02005KT 10SM OVC085 01/M14 A3004 RMK AO2
K04V 140052Z AUTO 30005KT 10SM OVC085 00/M15 A3005 RMK AO2
K04V 140035Z AUTO 00000KT 10SM OVC085 01/M15 A3005 RMK AO2
K04V 140012Z AUTO 04004KT 10SM SCT085 01/M15 A3005 RMK AO2
K04V 132354Z AUTO 08004KT 10SM CLR 02/M15 A3005 RMK AO2
K04V 132330Z AUTO 09006KT 10SM CLR 03/M14 A3005 RMK AO2
K04V 132312Z AUTO 08006KT 10SM CLR 04/M14 A3006 RMK AO2
K04V 132254Z AUTO 08004KT 10SM CLR 05/M13 A3006 RMK AO2
K04V 132230Z AUTO 12003KT 10SM CLR 06/M13 A3006 RMK AO2
K04V 132212Z AUTO 12005KT 10SM CLR 06/M13 A3007 RMK AO2
K04V 132154Z AUTO 12004KT 10SM CLR 06/M13 A3007 RMK AO2
K04V 132130Z AUTO 14005KT 10SM CLR 06/M13 A3009 RMK AO2
K04V 132112Z AUTO 14005KT 10SM CLR 06/M13 A3009 RMK AO2
K04V 132054Z AUTO 13006KT 10SM CLR 06/M13 A3009 RMK AO2
K04V 132030Z AUTO 13005KT 10SM SCT095 06/M13 A3011 RMK AO2
K04V 132012Z AUTO 13007KT 10SM SCT095 06/M13 A3012 RMK AO2
K04V 131954Z AUTO 13008KT 10SM CLR 06/M13 A3012 RMK AO2
K04V 131930Z AUTO 15008KT 10SM CLR 06/M13 A3014 RMK AO2
K04V 131912Z AUTO 16010KT 10SM CLR 06/M13 A3015 RMK AO2
K04V 131851Z AUTO 13008KT 10SM SCT090 05/M12 A3017 RMK AO2
K04V 131833Z AUTO 14007KT 10SM BKN090 05/M13 A3019 RMK AO2
K04V 131815Z AUTO 14008KT 10SM OVC090 05/M13 A3020 RMK AO2
K04V 131748Z AUTO 13007KT 10SM SCT090 03/M13 A3022 RMK AO2
K04V 131730Z AUTO 13004KT 10SM CLR 02/M13 A3024 RMK AO2
K04V 131712Z AUTO 14006KT 10SM SCT110 02/M12 A3025 RMK AO2
K04V 131654Z AUTO 14006KT 10SM SCT120 03/M14 A3025 RMK AO2
K04V 131630Z AUTO 29003KT 10SM CLR 02/M14 A3024 RMK AO2
K04V 131612Z AUTO 00000KT 10SM CLR 02/M14 A3025 RMK AO2
K04V 131553Z AUTO 00000KT 10SM SCT120 01/M14 A3025 RMK AO2
K04V 131530Z AUTO 31005KT 10SM SCT120 01/M13 A3025 RMK AO2
K04V 131512Z AUTO 00000KT 10SM CLR 00/M13 A3026 RMK AO2
K04V 131454Z AUTO 32010G14KT 10SM CLR M01/M14 A3026 RMK AO2
K04V 131430Z AUTO 31008KT 10SM CLR M03/M15 A3026 RMK AO2
K04V 131412Z AUTO 29004KT 10SM CLR M05/M15 A3026 RMK AO2
K04V 131351Z AUTO 27003KT 10SM CLR M02/M15 A3026 RMK AO2
K04V 131334Z AUTO 00000KT 10SM CLR M04/M15 A3026 RMK AO2
K04V 131312Z AUTO 29006KT 10SM CLR M05/M15 A3026 RMK AO2
K04V 131254Z AUTO 35003KT 10SM CLR M03/M14 A3026 RMK AO2
K04V 131230Z AUTO 18003KT 10SM CLR M03/M15 A3025 RMK AO2
K04V 131212Z AUTO 32010KT 10SM CLR M01/M13 A3025 RMK AO2
K04V 131151Z AUTO 33011KT 10SM CLR M02/M14 A3026 RMK AO2
K04V 131130Z AUTO 32013KT 10SM CLR 01/M13 A3026 RMK AO2
K04V 131112Z AUTO 32014KT 10SM CLR 01/M13 A3026 RMK AO2
K04V 131054Z AUTO 31018KT 10SM CLR 01/M13 A3025 RMK AO2
K04V 131030Z AUTO 32016KT 10SM CLR 00/M13 A3026 RMK AO2
K04V 131012Z AUTO 31020KT 10SM CLR M01/M13 A3025 RMK AO2
K04V 130954Z AUTO 31017KT 10SM CLR M01/M13 A3027 RMK AO2
K04V 130930Z AUTO 32016KT 10SM CLR M02/M13 A3028 RMK AO2
K04V 130912Z AUTO 32017KT 10SM CLR M03/M13 A3028 RMK AO2
K04V 130700Z AUTO 32013KT 10SM CLR M02/M14 A3030 RMK AO2
K04V 130653Z AUTO 32015KT 10SM CLR M01/M13 A3030 RMK AO2
K04V 130635Z AUTO 32016KT 10SM CLR M01/M13 A3030 RMK AO2
K04V 130612Z AUTO 33015KT 10SM CLR M02/M14 A3031 RMK AO2
K04V 130554Z AUTO 32014KT 10SM CLR M02/M14 A3031 RMK AO2
K04V 130530Z AUTO 31014KT 10SM CLR M01/M15 A3031 RMK AO2
K04V 130512Z AUTO 31013KT 10SM CLR 00/M14 A3032 RMK AO2
K04V 130454Z AUTO 31016KT 10SM CLR 00/M14 A3031 RMK AO2
K04V 130430Z AUTO 31015KT 10SM CLR 01/M13 A3031 RMK AO2
K04V 130412Z AUTO 00000KT 10SM CLR 00/M13 A3032 RMK AO2
K04V 130351Z AUTO 27003KT 10SM CLR 00/M13 A3033 RMK AO2
K04V 130331Z AUTO 27004KT 10SM CLR 02/M13 A3033 RMK AO2
K04V 130313Z AUTO 31007G16KT 10SM CLR 01/M13 A3033 RMK AO2
K04V 130253Z AUTO 31010KT 10SM CLR 02/M13 A3033 RMK AO2
K04V 130235Z AUTO 31014G17KT 10SM CLR 03/M13 A3033 RMK AO2
K04V 130229Z AUTO 32012KT 10SM CLR 02/M13 A3033 RMK AO2
K04V 130211Z AUTO 31014KT 10SM CLR 03/M13 A3034 RMK AO2
K04V 130150Z AUTO 33011KT 10SM CLR 02/M15 A3034 RMK AO2
K04V 130134Z AUTO 32007KT 10SM CLR 02/M15 A3035 RMK AO2
K04V 130112Z AUTO 33008KT 10SM CLR 00/M16 A3035 RMK AO2
K04V 130053Z AUTO 35007KT 10SM CLR M02/M17 A3035 RMK AO2
K04V 130030Z AUTO 02004KT 10SM CLR M02/M17 A3036 RMK AO2
K04V 130012Z AUTO 02005KT 10SM CLR 00/M17 A3036 RMK AO2
K04V 122354Z AUTO 00000KT 10SM CLR 03/M16 A3036 RMK AO2
K04V 122330Z AUTO 16004KT 10SM CLR 06/M16 A3036 RMK AO2
K04V 122312Z AUTO 15004KT 10SM CLR 07/M16 A3036 RMK AO2
K04V 122254Z AUTO 15005KT 10SM CLR 08/M16 A3036 RMK AO2
K04V 122230Z AUTO 16006KT 10SM CLR 08/M15 A3036 RMK AO2
K04V 122212Z AUTO 17004KT 10SM CLR 08/M15 A3037 RMK AO2
K04V 122154Z AUTO 16003KT 10SM CLR 09/M15 A3038 RMK AO2
K04V 122130Z AUTO 17003KT 10SM CLR 09/M15 A3038 RMK AO2
K04V 122112Z AUTO 00000KT 10SM CLR 08/M15 A3039 RMK AO2
K04V 122053Z AUTO 16003KT 10SM CLR 08/M15 A3040 RMK AO2
K04V 122030Z AUTO 12005KT 10SM CLR 08/M15 A3041 RMK AO2
K04V 122012Z AUTO 15003KT 10SM CLR 07/M15 A3043 RMK AO2
K04V 121954Z AUTO 15005KT 10SM CLR 08/M15 A3043 RMK AO2
K04V 121930Z AUTO 18004KT 10SM CLR 07/M15 A3045 RMK AO2
K04V 121912Z AUTO 14005KT 10SM CLR 07/M15 A3046 RMK AO2
K04V 121854Z AUTO 15004KT 10SM CLR 06/M15 A3048 RMK AO2
K04V 121830Z AUTO 14005KT 10SM CLR 05/M15 A3050 RMK AO2
K04V 121812Z AUTO 13005KT 10SM CLR 04/M15 A3052 RMK AO2
K04V 121754Z AUTO 14005KT 10SM CLR 03/M15 A3053 RMK AO2
K04V 121730Z AUTO 13005KT 10SM CLR 03/M15 A3054 RMK AO2
K04V 121712Z AUTO 15004KT 10SM CLR 01/M16 A3055 RMK AO2
K04V 121654Z AUTO 15003KT 10SM CLR 00/M16 A3055 RMK AO2
K04V 121630Z AUTO 16003KT 10SM CLR M01/M16 A3055 RMK AO2
K04V 121612Z AUTO 00000KT 10SM CLR M01/M16 A3055 RMK AO2
K04V 121553Z AUTO 00000KT 10SM CLR M01/M16 A3055 RMK AO2
K04V 121535Z AUTO 00000KT 10SM CLR M02/M16 A3055 RMK AO2
K04V 121512Z AUTO 11003KT 10SM CLR M03/M16 A3055 RMK AO2
K04V 121451Z AUTO 10003KT 10SM CLR M05/M16 A3054 RMK AO2
K04V 121434Z AUTO 12005KT 10SM CLR M06/M17 A3054 RMK AO2